createdAt,value
2023-04-23T00:00:56.175Z,69.9853
2023-04-23T00:01:57.818Z,70.0960
2023-04-23T00:02:59.873Z,69.8152
2023-04-23T00:04:01.474Z,69.9766
2023-04-23T00:05:02.784Z,70.0882
2023-04-23T00:06:04.467Z,70.3037
2023-04-23T00:07:06.013Z,69.8118
2023-04-23T00:08:07.794Z,69.7485
2023-04-23T00:09:09.335Z,69.3548
2023-04-23T00:10:11.007Z,69.5379
2023-04-23T00:11:13.192Z,69.2243
2023-04-23T00:12:14.282Z,68.9896
2023-04-23T00:13:15.909Z,69.3564
2023-04-23T00:14:17.629Z,69.7209
2023-04-23T00:15:19.719Z,69.2610
2023-04-23T00:16:20.887Z,69.7277
2023-04-23T00:17:22.492Z,69.5798
2023-04-23T00:18:24.154Z,69.5352
2023-04-23T00:19:25.828Z,69.7752
2023-04-23T00:20:27.405Z,69.7677
2023-04-23T00:21:29.030Z,70.0834
2023-04-23T00:22:30.737Z,69.6228
2023-04-23T00:23:32.447Z,69.3980
2023-04-23T00:24:34.330Z,68.9323
2023-04-23T00:25:35.590Z,69.1866
2023-04-23T00:26:37.313Z,69.1252
2023-04-23T00:27:38.931Z,68.8640
2023-04-23T00:28:41.340Z,70.3996
2023-04-23T00:29:42.215Z,69.9133
2023-04-23T00:30:43.883Z,69.4262
2023-04-23T00:31:45.485Z,69.6969
2023-04-23T00:32:47.330Z,69.4429
2023-04-23T00:33:48.736Z,69.2551
2023-04-23T00:34:50.770Z,69.6466
2023-04-23T00:35:52.018Z,69.9771
2023-04-23T00:36:53.733Z,69.5601
2023-04-23T00:37:55.290Z,68.9142
2023-04-23T00:38:57.027Z,69.2437
2023-04-23T00:39:58.764Z,68.7700
2023-04-23T00:41:00.353Z,69.0569
2023-04-23T00:42:01.878Z,69.5559
2023-04-23T00:43:03.568Z,69.9673
2023-04-23T00:44:05.325Z,69.6255
2023-04-23T00:45:06.861Z,69.6107
2023-04-23T00:46:09.314Z,70.8109
2023-04-23T00:47:10.072Z,70.4572
2023-04-23T00:48:11.805Z,69.9277
2023-04-23T00:49:14.323Z,69.9587
2023-04-23T00:50:15.163Z,70.8641
2023-04-23T00:51:17.370Z,70.3568
2023-04-23T00:52:18.359Z,69.3188
2023-04-23T00:53:19.982Z,69.4226
2023-04-23T00:54:21.570Z,69.2470
2023-04-23T00:55:23.331Z,69.1589
2023-04-23T00:56:24.960Z,69.1025
2023-04-23T00:57:26.594Z,69.7265
2023-04-23T00:58:28.140Z,69.6726
2023-04-23T00:59:29.817Z,69.7714
2023-04-23T01:00:32.319Z,69.6094
2023-04-23T01:01:33.251Z,69.8065
2023-04-23T01:02:34.812Z,69.9052
2023-04-23T01:03:36.682Z,70.0347
2023-04-23T01:04:38.177Z,69.9336
2023-04-23T01:05:39.853Z,70.1381
2023-04-23T01:06:41.472Z,68.6902
2023-04-23T01:07:43.079Z,69.0305
2023-04-23T01:08:44.727Z,69.4140
2023-04-23T01:09:46.396Z,69.8272
2023-04-23T01:10:48.102Z,69.4313
2023-04-23T01:11:49.755Z,69.6647
2023-04-23T01:12:51.277Z,69.6372
2023-04-23T01:13:52.991Z,70.3259
2023-04-23T01:14:54.538Z,69.4943
2023-04-23T01:15:56.268Z,69.1413
2023-04-23T01:16:58.874Z,69.2041
2023-04-23T01:17:59.593Z,70.0656
2023-04-23T01:19:01.084Z,69.0669
2023-04-23T01:20:02.746Z,69.3754
2023-04-23T01:21:04.467Z,69.6666
2023-04-23T01:22:06.139Z,68.8503
2023-04-23T01:23:07.763Z,69.8756
2023-04-23T01:24:09.367Z,69.9410
2023-04-23T01:25:10.977Z,69.2342
2023-04-23T01:26:13.592Z,70.5866
2023-04-23T01:27:14.341Z,70.2537
2023-04-23T01:28:15.956Z,69.6890
2023-04-23T01:29:17.599Z,70.4345
2023-04-23T01:30:19.232Z,69.4685
2023-04-23T01:31:20.966Z,70.9854
2023-04-23T01:32:22.647Z,72.0748
2023-04-23T01:33:24.118Z,70.5402
2023-04-23T01:34:26.778Z,68.7522
2023-04-23T01:35:27.343Z,68.9235
2023-04-23T01:36:29.359Z,68.6419
2023-04-23T01:37:30.818Z,69.1852
2023-04-23T01:38:33.295Z,70.1727
2023-04-23T01:39:33.996Z,69.9961
2023-04-23T01:40:36.014Z,70.7926
2023-04-23T01:41:37.237Z,69.9524
2023-04-23T01:42:38.944Z,70.7095
2023-04-23T01:43:40.558Z,70.5854
2023-04-23T01:44:42.568Z,70.1913
2023-04-23T01:45:43.914Z,71.9645
2023-04-23T01:46:45.432Z,70.3802
2023-04-23T01:47:47.224Z,69.1014
2023-04-23T01:48:48.762Z,69.1627
2023-04-23T01:49:50.397Z,68.3455
2023-04-23T01:50:52.141Z,69.2675
2023-04-23T01:51:53.672Z,70.0161
2023-04-23T01:52:55.406Z,69.8573
2023-04-23T01:53:56.918Z,70.3498
2023-04-23T01:54:59.038Z,70.5306
2023-04-23T01:56:00.236Z,70.3386
2023-04-23T01:57:01.880Z,69.5295
2023-04-23T01:58:03.505Z,70.1287
2023-04-23T01:59:06.466Z,70.5812
2023-04-23T02:00:06.760Z,71.9246
2023-04-23T02:01:09.492Z,69.7317
2023-04-23T02:02:10.069Z,69.8826
2023-04-23T02:03:11.892Z,68.0004
2023-04-23T02:04:13.380Z,69.1846
2023-04-23T02:05:15.181Z,69.8759
2023-04-23T02:06:16.613Z,69.8614
2023-04-23T02:07:18.286Z,69.8364
2023-04-23T02:08:19.938Z,71.3743
2023-04-23T02:09:22.649Z,69.6895
2023-04-23T02:10:23.163Z,69.3163
2023-04-23T02:11:25.096Z,71.2355
2023-04-23T02:12:26.584Z,71.1316
2023-04-23T02:13:28.514Z,69.5053
2023-04-23T02:14:29.756Z,68.6466
2023-04-23T02:15:31.487Z,68.9039
2023-04-23T02:16:33.136Z,69.9096
2023-04-23T02:17:34.784Z,69.1147
2023-04-23T02:18:36.366Z,70.2271
2023-04-23T02:19:38.083Z,69.9192
2023-04-23T02:20:39.666Z,70.8748
2023-04-23T02:21:41.422Z,70.3788
2023-04-23T02:22:43.882Z,72.0078
2023-04-23T02:23:44.664Z,71.4309
2023-04-23T02:24:46.306Z,70.9797
2023-04-23T02:25:48.004Z,71.4060
2023-04-23T02:26:49.549Z,69.6702
2023-04-23T02:27:51.218Z,68.8886
2023-04-23T02:28:53.010Z,68.9704
2023-04-23T02:29:54.499Z,69.0367
2023-04-23T02:30:56.090Z,68.4104
2023-04-23T02:31:57.930Z,70.9614
2023-04-23T02:32:59.437Z,70.7269
2023-04-23T02:34:01.029Z,70.1755
2023-04-23T02:35:02.645Z,71.5145
2023-04-23T02:36:04.308Z,71.7642
2023-04-23T02:37:06.957Z,69.9542
2023-04-23T02:38:07.521Z,70.1767
2023-04-23T02:39:09.102Z,69.6917
2023-04-23T02:40:10.907Z,68.8494
2023-04-23T02:41:12.928Z,69.6404
2023-04-23T02:42:14.204Z,68.1416
2023-04-23T02:43:15.783Z,68.3189
2023-04-23T02:44:17.426Z,68.2652
2023-04-23T02:45:19.088Z,68.1004
2023-04-23T02:46:20.780Z,70.5641
2023-04-23T02:47:22.447Z,71.5142
2023-04-23T02:48:24.031Z,71.6378
2023-04-23T02:49:25.650Z,71.3634
2023-04-23T02:50:27.305Z,71.8828
2023-04-23T02:51:29.509Z,71.4479
2023-04-23T02:52:30.579Z,71.8199
2023-04-23T02:53:32.217Z,71.4815
2023-04-23T02:54:33.829Z,69.9745
2023-04-23T02:55:35.500Z,68.2812
2023-04-23T02:56:37.144Z,68.5749
2023-04-23T02:57:38.932Z,68.4974
2023-04-23T02:58:40.392Z,69.4304
2023-04-23T02:59:42.118Z,70.1852
2023-04-23T03:00:43.725Z,71.0656
2023-04-23T03:01:45.394Z,70.2286
2023-04-23T03:02:47.126Z,70.0519
2023-04-23T03:03:48.869Z,71.3074
2023-04-23T03:04:50.256Z,71.8836
2023-04-23T03:05:51.926Z,71.4301
2023-04-23T03:06:53.639Z,70.9973
2023-04-23T03:07:55.936Z,70.0300
2023-04-23T03:08:56.812Z,68.5121
2023-04-23T03:09:58.539Z,67.6243
2023-04-23T03:11:00.167Z,68.6374
2023-04-23T03:12:02.486Z,68.0596
2023-04-23T03:13:03.454Z,69.9618
2023-04-23T03:14:05.140Z,70.5079
2023-04-23T03:15:06.706Z,70.9412
2023-04-23T03:16:08.934Z,71.1417
2023-04-23T03:17:10.060Z,70.1811
2023-04-23T03:18:11.716Z,71.5133
2023-04-23T03:19:13.345Z,71.1047
2023-04-23T03:20:15.914Z,70.6300
2023-04-23T03:21:16.557Z,69.8902
2023-04-23T03:22:18.307Z,68.8660
2023-04-23T03:23:19.926Z,68.0710
2023-04-23T03:24:21.559Z,68.0589
2023-04-23T03:25:23.117Z,69.1958
2023-04-23T03:26:24.828Z,69.9501
2023-04-23T03:27:26.481Z,70.1433
2023-04-23T03:28:28.162Z,71.2862
2023-04-23T03:29:29.707Z,71.2332
2023-04-23T03:30:31.381Z,71.2691
2023-04-23T03:31:32.975Z,71.4024
2023-04-23T03:32:34.714Z,70.3372
2023-04-23T03:33:36.341Z,68.7806
2023-04-23T03:34:37.952Z,68.9808
2023-04-23T03:35:39.594Z,67.7161
2023-04-23T03:36:41.204Z,68.8069
2023-04-23T03:37:42.907Z,67.9985
2023-04-23T03:38:44.596Z,69.1560
2023-04-23T03:39:46.147Z,70.3861
2023-04-23T03:40:47.843Z,70.5401
2023-04-23T03:41:49.418Z,70.0104
2023-04-23T03:42:51.169Z,70.2966
2023-04-23T03:43:53.430Z,69.8658
2023-04-23T03:44:54.371Z,70.7162
2023-04-23T03:45:56.104Z,69.2468
2023-04-23T03:46:58.402Z,68.3301
2023-04-23T03:47:59.428Z,68.7763
2023-04-23T03:49:01.454Z,67.5087
2023-04-23T03:50:02.604Z,67.3655
2023-04-23T03:51:04.229Z,68.8534
2023-04-23T03:52:05.908Z,68.4310
2023-04-23T03:53:07.596Z,70.8421
2023-04-23T03:54:09.128Z,71.0417
2023-04-23T03:55:10.787Z,70.2990
2023-04-23T03:56:12.397Z,69.2082
2023-04-23T03:57:14.016Z,69.1033
2023-04-23T03:58:15.700Z,68.4227
2023-04-23T03:59:17.333Z,68.1500
2023-04-23T04:00:19.032Z,68.0543
2023-04-23T04:01:20.594Z,67.3463
2023-04-23T04:02:22.408Z,66.2571
2023-04-23T04:03:25.185Z,65.6106
2023-04-23T04:04:25.832Z,65.0186
2023-04-23T04:05:27.309Z,65.5935
2023-04-23T04:06:28.914Z,65.6706
2023-04-23T04:07:30.464Z,65.2173
2023-04-23T04:08:32.133Z,64.5396
2023-04-23T04:09:33.764Z,63.5281
2023-04-23T04:10:35.932Z,62.9034
2023-04-23T04:11:37.410Z,62.9463
2023-04-23T04:12:38.739Z,62.4171
2023-04-23T04:13:40.370Z,61.7231
2023-04-23T04:14:42.301Z,61.5712
2023-04-23T04:15:44.459Z,62.1548
2023-04-23T04:16:45.368Z,62.3952
2023-04-23T04:17:47.017Z,62.5608
2023-04-23T04:18:48.724Z,61.7374
2023-04-23T04:19:50.606Z,62.1668
2023-04-23T04:20:52.031Z,61.7574
2023-04-23T04:21:53.630Z,61.4596
2023-04-23T04:22:55.295Z,60.8898
2023-04-23T04:23:57.980Z,61.0293
2023-04-23T04:24:58.454Z,61.1686
2023-04-23T04:26:00.203Z,60.9929
2023-04-23T04:27:01.869Z,60.5118
2023-04-23T04:28:03.554Z,61.0634
2023-04-23T04:29:05.126Z,60.7459
2023-04-23T04:30:06.880Z,60.8315
2023-04-23T04:31:08.505Z,60.1542
2023-04-23T04:32:10.098Z,60.0757
2023-04-23T04:33:11.770Z,59.8620
2023-04-23T04:34:13.449Z,60.0838
2023-04-23T04:35:14.968Z,60.2828
2023-04-23T04:36:16.703Z,60.0802
2023-04-23T04:37:18.279Z,59.9036
2023-04-23T04:38:19.960Z,60.3211
2023-04-23T04:39:21.583Z,60.4520
2023-04-23T04:40:23.278Z,60.1467
2023-04-23T04:41:24.920Z,60.6203
2023-04-23T04:42:26.534Z,60.6617
2023-04-23T04:43:28.227Z,60.4505
2023-04-23T04:44:29.796Z,60.6668
2023-04-23T04:45:31.509Z,60.9089
2023-04-23T04:46:33.131Z,60.9962
2023-04-23T04:47:34.776Z,60.6588
2023-04-23T04:48:37.377Z,61.3686
2023-04-23T04:49:38.089Z,61.0907
2023-04-23T04:50:39.680Z,60.9295
2023-04-23T04:51:41.293Z,61.4267
2023-04-23T04:52:42.983Z,61.2935
2023-04-23T04:53:44.589Z,61.8693
2023-04-23T04:54:46.226Z,61.3370
2023-04-23T04:55:47.907Z,62.1559
2023-04-23T04:56:49.627Z,61.8173
2023-04-23T04:57:52.200Z,62.5824
2023-04-23T04:58:53.776Z,61.7953
2023-04-23T04:59:55.350Z,61.2582
2023-04-23T05:00:56.098Z,63.5242
2023-04-23T05:01:57.793Z,62.3460
2023-04-23T05:02:59.535Z,62.8993
2023-04-23T05:04:01.109Z,62.8180
2023-04-23T05:05:02.619Z,62.5780
2023-04-23T05:06:04.302Z,61.9432
2023-04-23T05:07:05.925Z,62.3499
2023-04-23T05:08:07.574Z,63.0801
2023-04-23T05:09:09.173Z,62.1987
2023-04-23T05:10:10.931Z,63.2191
2023-04-23T05:11:12.498Z,62.7564
2023-04-23T05:12:14.238Z,62.9330
2023-04-23T05:13:15.855Z,62.7805
2023-04-23T05:14:17.459Z,61.7116
2023-04-23T05:15:19.108Z,63.6912
2023-04-23T05:16:20.871Z,62.1482
2023-04-23T05:17:23.075Z,62.7948
2023-04-23T05:18:24.120Z,62.6596
2023-04-23T05:19:25.647Z,63.1943
2023-04-23T05:20:27.352Z,61.6817
2023-04-23T05:21:29.022Z,62.5845
2023-04-23T05:22:30.670Z,62.1887
2023-04-23T05:23:32.213Z,61.8493
2023-04-23T05:24:33.948Z,62.3178
2023-04-23T05:25:35.580Z,61.7434
2023-04-23T05:26:37.267Z,62.2820
2023-04-23T05:27:38.893Z,62.0400
2023-04-23T05:28:40.517Z,63.0377
2023-04-23T05:29:42.118Z,62.0286
2023-04-23T05:30:43.804Z,61.9417
2023-04-23T05:31:45.498Z,62.6555
2023-04-23T05:32:47.198Z,62.7428
2023-04-23T05:33:50.504Z,62.7316
2023-04-23T05:34:50.372Z,62.5026
2023-04-23T05:35:52.019Z,62.7091
2023-04-23T05:36:53.772Z,62.8242
2023-04-23T05:37:55.373Z,62.1840
2023-04-23T05:38:56.996Z,63.1152
2023-04-23T05:39:58.577Z,62.9848
2023-04-23T05:41:00.291Z,62.7185
2023-04-23T05:42:02.405Z,63.0588
2023-04-23T05:43:03.579Z,63.0444
2023-04-23T05:44:05.185Z,62.4872
2023-04-23T05:45:08.864Z,62.4263
2023-04-23T05:46:08.512Z,62.8601
2023-04-23T05:47:10.203Z,62.3166
2023-04-23T05:48:11.843Z,62.7836
2023-04-23T05:49:13.468Z,63.0338
2023-04-23T05:50:15.092Z,62.8895
2023-04-23T05:51:16.788Z,62.7131
2023-04-23T05:52:18.434Z,63.1272
2023-04-23T05:53:20.162Z,63.2868
2023-04-23T05:54:21.653Z,62.9754
2023-04-23T05:55:23.338Z,63.5054
2023-04-23T05:56:25.058Z,63.0060
2023-04-23T05:57:27.525Z,63.3289
2023-04-23T05:58:28.346Z,63.5909
2023-04-23T05:59:29.978Z,62.6769
2023-04-23T06:00:31.630Z,63.7841
2023-04-23T06:01:33.205Z,63.3967
2023-04-23T06:02:35.042Z,63.3814
2023-04-23T06:03:36.793Z,63.1343
2023-04-23T06:04:38.361Z,63.5367
2023-04-23T06:05:39.835Z,63.0843
2023-04-23T06:06:41.484Z,63.2788
2023-04-23T06:07:43.180Z,62.4864
2023-04-23T06:08:45.063Z,62.9445
2023-04-23T06:09:46.401Z,63.0313
2023-04-23T06:10:48.108Z,62.3602
2023-04-23T06:11:49.683Z,63.5944
2023-04-23T06:12:51.592Z,63.0834
2023-04-23T06:13:53.060Z,63.2077
2023-04-23T06:14:54.689Z,63.3938
2023-04-23T06:15:56.319Z,63.6093
2023-04-23T06:16:57.981Z,63.2509
2023-04-23T06:17:59.666Z,63.1748
2023-04-23T06:19:01.588Z,62.6113
2023-04-23T06:20:02.904Z,62.8834
2023-04-23T06:21:04.566Z,63.2004
2023-04-23T06:22:06.164Z,63.0592
2023-04-23T06:23:07.866Z,62.8174
2023-04-23T06:24:09.504Z,62.9370
2023-04-23T06:25:11.180Z,62.3893
2023-04-23T06:26:12.722Z,63.3073
2023-04-23T06:27:14.421Z,62.5261
2023-04-23T06:28:16.163Z,63.0719
2023-04-23T06:29:17.758Z,63.0851
2023-04-23T06:30:19.374Z,63.1912
2023-04-23T06:31:21.061Z,63.1258
2023-04-23T06:32:22.630Z,63.1388
2023-04-23T06:33:24.284Z,63.4523
2023-04-23T06:34:26.131Z,63.1827
2023-04-23T06:35:27.635Z,63.0329
2023-04-23T06:36:29.166Z,63.5413
2023-04-23T06:37:31.029Z,63.4100
2023-04-23T06:38:32.428Z,63.0868
2023-04-23T06:39:34.183Z,63.3327
2023-04-23T06:40:35.718Z,63.1560
2023-04-23T06:41:37.337Z,62.9321
2023-04-23T06:42:40.096Z,63.1096
2023-04-23T06:43:40.887Z,62.5129
2023-04-23T06:44:42.675Z,63.0485
2023-04-23T06:45:44.232Z,63.0230
2023-04-23T06:46:45.826Z,62.8932
2023-04-23T06:47:48.212Z,63.5485
2023-04-23T06:48:48.999Z,62.8831
2023-04-23T06:49:50.736Z,63.2540
2023-04-23T06:50:52.379Z,63.1585
2023-04-23T06:51:56.975Z,62.6891
2023-04-23T06:52:55.476Z,62.7487
2023-04-23T06:53:57.193Z,62.4391
2023-04-23T06:54:59.862Z,63.5764
2023-04-23T06:56:00.461Z,63.1308
2023-04-23T06:57:02.179Z,62.9148
2023-04-23T06:58:03.753Z,63.0031
2023-04-23T06:59:05.356Z,55.6960
2023-04-23T07:00:07.109Z,50.0570
2023-04-23T07:01:08.701Z,50.4680
2023-04-23T07:02:10.369Z,59.5101
2023-04-23T07:03:11.997Z,57.1989
2023-04-23T07:04:13.669Z,57.1071
2023-04-23T07:05:15.272Z,58.4061
2023-04-23T07:06:18.603Z,57.9806
2023-04-23T07:07:18.508Z,58.0082
2023-04-23T07:08:20.205Z,57.8587
2023-04-23T07:09:21.818Z,58.0167
2023-04-23T07:10:23.560Z,58.3469
2023-04-23T07:11:25.142Z,59.3712
2023-04-23T07:12:26.830Z,60.3041
2023-04-23T07:13:28.442Z,52.6241
2023-04-23T07:14:30.087Z,49.5132
2023-04-23T07:15:31.845Z,52.7589
2023-04-23T07:16:33.480Z,57.2112
2023-04-23T07:17:34.992Z,57.1333
2023-04-23T07:18:36.657Z,56.6359
2023-04-23T07:19:38.288Z,57.1130
2023-04-23T07:20:39.989Z,56.9896
2023-04-23T07:21:41.578Z,57.4458
2023-04-23T07:22:43.232Z,58.0378
2023-04-23T07:23:44.865Z,57.4219
2023-04-23T07:24:46.522Z,57.5654
2023-04-23T07:25:48.183Z,58.0149
2023-04-23T07:26:49.858Z,49.6288
2023-04-23T07:27:51.401Z,47.9334
2023-04-23T07:28:53.183Z,54.8619
2023-04-23T07:29:54.704Z,55.1392
2023-04-23T07:30:56.454Z,54.7745
2023-04-23T07:31:58.077Z,54.6715
2023-04-23T07:32:59.718Z,55.7447
2023-04-23T07:34:01.392Z,55.9767
2023-04-23T07:35:02.975Z,56.4944
2023-04-23T07:36:04.598Z,57.1658
2023-04-23T07:37:06.316Z,49.0701
2023-04-23T07:38:07.860Z,47.3825
2023-04-23T07:39:09.545Z,46.9579
2023-04-23T07:40:11.189Z,54.7246
2023-04-23T07:41:12.914Z,52.3266
2023-04-23T07:42:15.068Z,52.8468
2023-04-23T07:43:16.142Z,55.0973
2023-04-23T07:44:17.761Z,54.1746
2023-04-23T07:45:19.500Z,55.3691
2023-04-23T07:46:21.146Z,56.2749
2023-04-23T07:47:23.002Z,56.1457
2023-04-23T07:48:24.413Z,55.3858
2023-04-23T07:49:26.021Z,48.7542
2023-04-23T07:50:27.637Z,49.0917
2023-04-23T07:51:29.351Z,58.4699
2023-04-23T07:52:30.957Z,58.3861
2023-04-23T07:53:32.577Z,58.7113
2023-04-23T07:54:34.207Z,56.1101
2023-04-23T07:55:35.917Z,58.4932
2023-04-23T07:56:37.597Z,57.4243
2023-04-23T07:57:39.241Z,56.6425
2023-04-23T07:58:40.815Z,56.8282
2023-04-23T07:59:42.863Z,59.0933
2023-04-23T08:00:44.088Z,59.2166
2023-04-23T08:01:45.820Z,58.8705
2023-04-23T08:02:47.614Z,58.0503
2023-04-23T08:03:49.440Z,59.5035
2023-04-23T08:04:50.827Z,58.1877
2023-04-23T08:05:52.336Z,59.8400
2023-04-23T08:06:54.045Z,59.6108
2023-04-23T08:07:55.645Z,60.4397
2023-04-23T08:08:57.308Z,58.8731
2023-04-23T08:09:58.900Z,61.3728
2023-04-23T08:11:00.547Z,61.4189
2023-04-23T08:12:02.236Z,60.6061
2023-04-23T08:13:03.902Z,62.0016
2023-04-23T08:14:05.496Z,61.4561
2023-04-23T08:15:07.220Z,62.1406
2023-04-23T08:16:08.790Z,61.9070
2023-04-23T08:17:10.463Z,63.2701
2023-04-23T08:18:12.107Z,62.2687
2023-04-23T08:19:13.706Z,62.9307
2023-04-23T08:20:15.302Z,62.8364
2023-04-23T08:21:17.031Z,62.9797
2023-04-23T08:22:20.293Z,63.3306
2023-04-23T08:23:20.353Z,62.7884
2023-04-23T08:24:22.456Z,63.7524
2023-04-23T08:25:23.603Z,63.3596
2023-04-23T08:26:25.214Z,63.1596
2023-04-23T08:27:26.971Z,62.9272
2023-04-23T08:28:28.593Z,63.0647
2023-04-23T08:29:30.208Z,64.1123
2023-04-23T08:30:31.789Z,63.8241
2023-04-23T08:31:33.509Z,63.4794
2023-04-23T08:32:35.158Z,63.7758
2023-04-23T08:33:36.875Z,64.4180
2023-04-23T08:34:38.442Z,63.8232
2023-04-23T08:35:40.078Z,64.0737
2023-04-23T08:36:41.649Z,64.2587
2023-04-23T08:37:43.444Z,64.7485
2023-04-23T08:38:44.989Z,64.1763
2023-04-23T08:39:46.686Z,64.2275
2023-04-23T08:40:48.227Z,64.1326
2023-04-23T08:41:49.926Z,64.4101
2023-04-23T08:42:51.644Z,64.1831
2023-04-23T08:43:53.238Z,65.2966
2023-04-23T08:44:54.801Z,65.9274
2023-04-23T08:45:56.510Z,64.2054
2023-04-23T08:46:58.248Z,64.0893
2023-04-23T08:48:02.134Z,65.0611
2023-04-23T08:49:01.452Z,64.8905
2023-04-23T08:50:03.074Z,65.9178
2023-04-23T08:51:04.690Z,65.1851
2023-04-23T08:52:06.380Z,59.9729
2023-04-23T08:53:08.065Z,51.5067
2023-04-23T08:54:09.679Z,52.0863
2023-04-23T08:55:11.255Z,51.7964
2023-04-23T08:56:12.940Z,48.3611
2023-04-23T08:57:14.574Z,51.1859
2023-04-23T08:58:16.279Z,57.6827
2023-04-23T08:59:17.911Z,53.6015
2023-04-23T09:00:19.455Z,53.6833
2023-04-23T09:01:21.297Z,54.3894
2023-04-23T09:02:22.986Z,55.3233
2023-04-23T09:03:24.547Z,61.3192
2023-04-23T09:04:26.164Z,57.9998
2023-04-23T09:05:27.710Z,55.8850
2023-04-23T09:06:29.422Z,57.6766
2023-04-23T09:07:31.023Z,59.1251
2023-04-23T09:08:32.753Z,59.2763
2023-04-23T09:09:34.641Z,56.7353
2023-04-23T09:10:35.974Z,61.6574
2023-04-23T09:11:37.577Z,60.8962
2023-04-23T09:12:39.276Z,62.6054
2023-04-23T09:13:40.950Z,59.4087
2023-04-23T09:14:42.852Z,62.3987
2023-04-23T09:15:44.169Z,62.0191
2023-04-23T09:16:45.922Z,64.2181
2023-04-23T09:17:47.529Z,61.8861
2023-04-23T09:18:49.194Z,61.9225
2023-04-23T09:19:50.858Z,62.6856
2023-04-23T09:20:52.528Z,62.3859
2023-04-23T09:21:54.046Z,63.7642
2023-04-23T09:22:55.727Z,60.9976
2023-04-23T09:23:57.449Z,61.9568
2023-04-23T09:24:59.090Z,61.6136
2023-04-23T09:26:00.627Z,62.4446
2023-04-23T09:27:02.267Z,62.9324
2023-04-23T09:28:03.958Z,62.1903
2023-04-23T09:29:05.609Z,62.7439
2023-04-23T09:30:07.294Z,62.1488
2023-04-23T09:31:08.879Z,62.4906
2023-04-23T09:32:10.586Z,62.5231
2023-04-23T09:33:12.151Z,63.1370
2023-04-23T09:34:14.206Z,63.8294
2023-04-23T09:35:15.554Z,63.9628
2023-04-23T09:36:17.233Z,63.6454
2023-04-23T09:37:18.783Z,63.1370
2023-04-23T09:38:20.428Z,64.0966
2023-04-23T09:39:22.065Z,63.5055
2023-04-23T09:40:23.749Z,64.1949
2023-04-23T09:41:25.304Z,64.0837
2023-04-23T09:42:26.986Z,66.0136
2023-04-23T09:43:28.575Z,64.3687
2023-04-23T09:44:30.353Z,64.4775
2023-04-23T09:45:31.945Z,64.7294
2023-04-23T09:46:33.562Z,64.8892
2023-04-23T09:47:35.252Z,64.8297
2023-04-23T09:48:36.879Z,65.1824
2023-04-23T09:49:38.534Z,63.4330
2023-04-23T09:50:40.245Z,63.8380
2023-04-23T09:51:41.769Z,63.3036
2023-04-23T09:52:43.431Z,63.7524
2023-04-23T09:53:45.056Z,57.2126
2023-04-23T09:54:47.214Z,50.8785
2023-04-23T09:55:48.397Z,49.3898
2023-04-23T09:56:50.076Z,56.2558
2023-04-23T09:57:51.611Z,56.3634
2023-04-23T09:58:53.366Z,55.2238
2023-04-23T10:00:03.754Z,54.5170
2023-04-23T10:00:56.638Z,55.5393
2023-04-23T10:01:58.289Z,55.7454
2023-04-23T10:03:00.168Z,56.7874
2023-04-23T10:04:01.694Z,57.1909
2023-04-23T10:05:21.468Z,57.5495
2023-04-23T10:06:05.264Z,58.1950
2023-04-23T10:07:17.923Z,59.4492
2023-04-23T10:08:08.232Z,60.9071
2023-04-23T10:09:09.704Z,60.5858
2023-04-23T10:10:11.463Z,62.2324
2023-04-23T10:11:20.734Z,60.4303
2023-04-23T10:13:16.302Z,60.2704
2023-04-23T10:14:17.962Z,60.2589
2023-04-23T10:15:19.684Z,60.9397
2023-04-23T10:16:23.284Z,59.6204
2023-04-23T10:17:22.932Z,60.8225
2023-04-23T10:18:24.492Z,56.1339
2023-04-23T10:19:27.171Z,53.5877
2023-04-23T10:20:27.878Z,59.1166
2023-04-23T10:21:36.620Z,56.2857
2023-04-23T10:22:31.067Z,55.9098
2023-04-23T10:23:32.802Z,54.4208
2023-04-23T10:24:34.371Z,52.2434
2023-04-23T10:25:36.729Z,54.4163
2023-04-23T10:26:38.190Z,54.6288
2023-04-23T10:27:51.118Z,57.6662
2023-04-23T10:28:41.042Z,54.7646
2023-04-23T10:29:43.017Z,54.8875
2023-04-23T10:30:44.681Z,55.9295
2023-04-23T10:31:45.980Z,51.7294
2023-04-23T10:32:47.561Z,48.3079
2023-04-23T10:33:58.204Z,51.0689
2023-04-23T10:34:50.931Z,52.8503
2023-04-23T10:35:52.601Z,53.1640
2023-04-23T10:36:54.181Z,50.7186
2023-04-23T10:37:55.844Z,43.6312
2023-04-23T10:38:59.106Z,48.3427
2023-04-23T10:39:59.132Z,52.8325
2023-04-23T10:41:00.801Z,52.8111
2023-04-23T10:42:02.466Z,55.0042
2023-04-23T10:43:04.026Z,55.3081
2023-04-23T10:44:05.723Z,55.5511
2023-04-23T10:45:16.613Z,50.7932
2023-04-23T10:46:09.139Z,52.9857
2023-04-23T10:47:10.738Z,55.9748
2023-04-23T10:48:12.460Z,51.7620
2023-04-23T10:49:14.016Z,53.6210
2023-04-23T10:50:15.744Z,53.5795
2023-04-23T10:51:56.084Z,55.4981
2023-04-23T10:52:21.495Z,55.3893
2023-04-23T10:53:20.604Z,57.2650
2023-04-23T10:54:22.319Z,51.3880
2023-04-23T10:55:23.969Z,53.7257
2023-04-23T10:56:25.789Z,51.2546
2023-04-23T10:57:27.271Z,53.2867
2023-04-23T10:58:28.943Z,48.8589
2023-04-23T10:59:30.465Z,52.5631
2023-04-23T11:00:32.164Z,48.3833
2023-04-23T11:01:33.827Z,50.4601
2023-04-23T11:02:35.607Z,55.8447
2023-04-23T11:03:39.646Z,55.2855
2023-04-23T11:04:38.834Z,52.4568
2023-04-23T11:05:40.389Z,49.8794
2023-04-23T11:06:42.089Z,51.3205
2023-04-23T11:07:43.750Z,52.7785
2023-04-23T11:08:45.426Z,54.8030
2023-04-23T11:09:47.013Z,54.0725
2023-04-23T11:10:48.667Z,53.8111
2023-04-23T11:11:50.288Z,51.3366
2023-04-23T11:12:52.027Z,46.6962
2023-04-23T11:13:53.621Z,51.2655
2023-04-23T11:14:55.307Z,52.7570
2023-04-23T11:15:56.907Z,53.5856
2023-04-23T11:16:58.530Z,54.9522
2023-04-23T11:18:00.216Z,55.4736
2023-04-23T11:19:01.911Z,48.8674
2023-04-23T11:20:03.558Z,41.6684
2023-04-23T11:21:05.187Z,44.4130
2023-04-23T11:22:06.767Z,41.6608
2023-04-23T11:23:08.462Z,44.3769
2023-04-23T11:24:10.097Z,39.8621
2023-04-23T11:25:11.842Z,43.4514
2023-04-23T11:26:13.424Z,49.1186
2023-04-23T11:27:15.044Z,41.5032
2023-04-23T11:28:16.694Z,39.8680
2023-04-23T11:29:18.339Z,47.7114
2023-04-23T11:30:19.962Z,49.7532
2023-04-23T11:31:21.656Z,44.4595
2023-04-23T11:32:23.298Z,45.2202
2023-04-23T11:33:24.927Z,47.9134
2023-04-23T11:34:26.604Z,49.1018
2023-04-23T11:35:28.167Z,45.5538
2023-04-23T11:36:30.699Z,47.6069
2023-04-23T11:37:31.480Z,46.8423
2023-04-23T11:38:33.056Z,44.8595
2023-04-23T11:39:34.733Z,46.3848
2023-04-23T11:40:36.643Z,42.6720
2023-04-23T11:41:38.087Z,41.3877
2023-04-23T11:42:39.664Z,42.4748
2023-04-23T11:43:42.212Z,44.5896
2023-04-23T11:44:42.972Z,51.7308
2023-04-23T11:45:44.701Z,53.3396
2023-04-23T11:46:46.272Z,44.9450
2023-04-23T11:47:47.962Z,53.9195
2023-04-23T11:48:49.562Z,48.3852
2023-04-23T11:49:51.271Z,44.1269
2023-04-23T11:50:53.130Z,45.4503
2023-04-23T11:51:54.611Z,43.0277
2023-04-23T11:52:56.201Z,43.2465
2023-04-23T11:53:57.906Z,48.2291
2023-04-23T11:54:59.467Z,44.3270
2023-04-23T11:56:01.219Z,39.0096
2023-04-23T11:57:02.788Z,44.0118
2023-04-23T11:58:04.472Z,44.0223
2023-04-23T11:59:06.069Z,48.3415
2023-04-23T12:00:07.763Z,43.1894
2023-04-23T12:01:09.448Z,46.1129
2023-04-23T12:02:11.100Z,42.2194
2023-04-23T12:03:12.936Z,40.3573
2023-04-23T12:04:14.662Z,37.6710
2023-04-23T12:05:16.154Z,37.6191
2023-04-23T12:06:17.883Z,39.3227
2023-04-23T12:07:26.341Z,46.9257
2023-04-23T12:08:21.140Z,43.7435
2023-04-23T12:09:23.725Z,45.9031
2023-04-23T12:10:24.392Z,43.5275
2023-04-23T12:11:26.122Z,40.0015
2023-04-23T12:12:27.738Z,37.2649
2023-04-23T12:13:29.407Z,40.0033
2023-04-23T12:14:31.176Z,40.4997
2023-04-23T12:15:32.780Z,42.0615
2023-04-23T12:16:34.271Z,40.5043
2023-04-23T12:17:35.997Z,40.3821
2023-04-23T12:18:37.680Z,42.6459
2023-04-23T12:19:39.380Z,42.9898
2023-04-23T12:20:40.888Z,40.7409
2023-04-23T12:21:42.685Z,36.4553
2023-04-23T12:22:44.193Z,38.5274
2023-04-23T12:23:45.915Z,39.2659
2023-04-23T12:24:47.416Z,38.1000
2023-04-23T12:25:49.193Z,37.8087
2023-04-23T12:26:50.810Z,39.3250